Time;durP1;ratioP1;P1;durP2;ratioP2;P2;SDS_P1;SDS_P2;PMS_P1;PMS_P2;Temp;Humidity;BMP_temperature;BMP_pressure;BME280_temperature;BME280_humidity;BME280_pressure;Samples;Min_cycle;Max_cycle;Signal;HPM_P1;HPM_P2
2022/12/03 00:00:29;;;;;;;15.87;10.43;;;3.40;99.90;;;;;;4985108;28;20264;-58
2022/12/03 00:02:57;;;;;;;16.60;10.00;;;3.30;99.90;;;;;;4985748;28;20201;-52
2022/12/03 00:05:24;;;;;;;15.60;9.30;;;3.30;99.90;;;;;;4980419;28;20220;-57
2022/12/03 00:07:51;;;;;;;18.10;10.27;;;3.30;99.90;;;;;;4987054;28;20693;-58
2022/12/03 00:10:18;;;;;;;13.70;9.67;;;3.30;99.90;;;;;;4966439;28;20350;-59
2022/12/03 00:12:45;;;;;;;16.17;9.33;;;3.40;99.90;;;;;;4985400;28;20205;-57
2022/12/03 00:15:15;;;;;;;16.77;10.07;;;3.30;99.90;;;;;;4977309;28;20217;-56
2022/12/03 00:17:41;;;;;;;19.33;11.60;;;3.30;99.90;;;;;;4986749;28;20215;-56
2022/12/03 00:20:17;;;;;;;18.20;10.67;;;3.30;99.90;;;;;;4977964;28;20229;-52
2022/12/03 00:22:44;;;;;;;16.60;10.47;;;3.30;99.90;;;;;;4986300;28;20207;-58
2022/12/03 00:25:11;;;;;;;17.03;9.67;;;3.20;99.90;;;;;;4968702;28;20233;-52
2022/12/03 00:27:38;;;;;;;19.50;10.50;;;3.20;99.90;;;;;;4986380;28;20202;-52
2022/12/03 00:30:07;;;;;;;16.80;10.20;;;3.20;99.90;;;;;;4978026;28;20235;-50
2022/12/03 00:32:34;;;;;;;20.10;9.73;;;3.20;99.90;;;;;;4985492;28;20198;-57
2022/12/03 00:35:01;;;;;;;18.50;10.10;;;3.20;99.90;;;;;;4982626;28;20304;-49
2022/12/03 00:37:30;;;;;;;18.57;10.30;;;3.20;99.90;;;;;;4981876;28;20197;-57
2022/12/03 00:39:57;;;;;;;20.03;11.10;;;3.20;99.90;;;;;;4985241;28;20256;-53
2022/12/03 00:42:23;;;;;;;17.90;11.00;;;3.20;99.90;;;;;;4968230;28;20198;-57
2022/12/03 00:44:50;;;;;;;15.80;9.17;;;3.10;99.90;;;;;;4980658;28;20206;-57
2022/12/03 00:47:18;;;;;;;18.13;10.37;;;3.20;99.90;;;;;;4982717;28;20263;-54
2022/12/03 00:49:44;;;;;;;18.17;10.33;;;3.10;99.90;;;;;;4985911;28;20255;-56
2022/12/03 00:52:11;;;;;;;19.70;10.73;;;3.10;99.90;;;;;;4976286;28;20752;-53
2022/12/03 00:54:40;;;;;;;16.40;9.77;;;3.10;99.90;;;;;;4986449;28;20205;-59
2022/12/03 00:57:06;;;;;;;20.13;9.97;;;3.10;99.90;;;;;;4966413;28;20217;-52
2022/12/03 00:59:33;;;;;;;17.93;9.87;;;3.00;99.90;;;;;;4984972;28;20213;-59
2022/12/03 01:02:00;;;;;;;18.47;9.90;;;3.10;99.90;;;;;;4977709;28;20893;-52
2022/12/03 01:04:27;;;;;;;19.37;10.50;;;3.00;99.90;;;;;;4983869;28;20212;-58
2022/12/03 01:06:54;;;;;;;18.40;9.90;;;3.00;99.90;;;;;;4979801;28;20206;-54
2022/12/03 01:09:21;;;;;;;15.00;9.77;;;3.00;99.90;;;;;;4982675;28;20323;-59
2022/12/03 01:11:50;;;;;;;16.67;9.83;;;3.00;99.90;;;;;;4969883;28;20216;-55
2022/12/03 01:14:19;;;;;;;17.97;9.60;;;3.00;99.90;;;;;;4981221;28;20204;-58
2022/12/03 01:16:47;;;;;;;15.90;9.33;;;3.00;99.90;;;;;;4980183;28;20217;-59
2022/12/03 01:19:15;;;;;;;18.70;10.00;;;3.00;99.90;;;;;;4981738;28;20417;-59
2022/12/03 01:21:42;;;;;;;20.50;10.23;;;2.90;99.90;;;;;;4985454;28;20203;-58
2022/12/03 01:24:09;;;;;;;17.90;9.93;;;2.90;99.90;;;;;;4976267;28;20209;-49
2022/12/03 01:26:36;;;;;;;18.10;10.00;;;2.90;99.90;;;;;;4970017;28;20201;-57
2022/12/03 01:29:05;;;;;;;13.83;8.90;;;2.80;99.90;;;;;;4982724;28;20689;-47
2022/12/03 01:34:17;;;;;;;16.77;9.73;;;2.80;99.90;;;;;;4976131;28;20212;-58
2022/12/03 01:36:43;;;;;;;15.67;9.70;;;2.80;99.90;;;;;;4985852;28;20268;-56
2022/12/03 01:39:10;;;;;;;17.20;9.67;;;2.80;99.90;;;;;;4976085;28;20233;-49
2022/12/03 01:41:37;;;;;;;17.57;9.97;;;2.80;99.90;;;;;;4985033;28;20197;-58
2022/12/03 01:44:15;;;;;;;15.63;9.67;;;2.80;99.90;;;;;;4967354;28;20581;-53
2022/12/03 01:46:43;;;;;;;18.10;9.47;;;2.80;99.90;;;;;;4985068;28;20251;-59
2022/12/03 01:49:16;;;;;;;17.33;9.60;;;2.70;99.90;;;;;;4976270;28;20264;-53
2022/12/03 01:51:44;;;;;;;17.17;9.10;;;2.70;99.90;;;;;;4984892;28;20207;-54
2022/12/03 01:54:17;;;;;;;18.27;9.77;;;2.70;99.90;;;;;;4975586;28;20224;-52
2022/12/03 01:56:45;;;;;;;17.83;9.87;;;2.80;99.90;;;;;;4984837;28;20304;-57
2022/12/03 01:59:16;;;;;;;19.63;10.13;;;2.70;99.90;;;;;;4965437;28;20233;-56
2022/12/03 02:01:43;;;;;;;15.70;10.03;;;2.70;99.90;;;;;;4984456;28;20285;-55
2022/12/03 02:04:13;;;;;;;17.87;9.40;;;2.70;99.90;;;;;;4976723;28;20213;-51
2022/12/03 02:06:41;;;;;;;17.83;10.30;;;2.60;99.90;;;;;;4984877;28;20666;-56
2022/12/03 02:09:10;;;;;;;17.47;9.20;;;2.60;99.90;;;;;;4976020;28;20324;-49
2022/12/03 02:11:41;;;;;;;21.27;10.90;;;2.60;99.90;;;;;;4984500;28;20225;-52
2022/12/03 02:14:11;;;;;;;17.67;9.87;;;2.50;99.90;;;;;;4968709;28;20213;-47
2022/12/03 02:16:41;;;;;;;20.33;10.33;;;2.60;99.90;;;;;;4982323;28;20213;-58
2022/12/03 02:19:14;;;;;;;19.80;10.07;;;2.50;99.90;;;;;;4977202;28;20225;-51
2022/12/03 02:21:50;;;;;;;17.83;10.97;;;2.50;99.90;;;;;;4983680;28;20749;-55
2022/12/03 02:24:24;;;;;;;20.83;10.57;;;2.50;99.90;;;;;;4968688;28;20208;-59
2022/12/03 02:26:53;;;;;;;18.57;10.53;;;2.50;99.90;;;;;;4979177;28;20196;-58
2022/12/03 02:29:20;;;;;;;20.33;10.53;;;2.50;99.90;;;;;;4965191;28;20244;-55
2022/12/03 02:31:47;;;;;;;16.63;10.10;;;2.50;99.90;;;;;;4983810;28;20201;-57
2022/12/03 02:34:32;;;;;;;21.67;10.87;;;2.50;99.90;;;;;;4974651;28;20212;-49
2022/12/03 02:37:00;;;;;;;20.00;9.90;;;2.50;99.90;;;;;;4982946;28;20243;-58
2022/12/03 02:39:27;;;;;;;21.17;11.27;;;2.50;99.90;;;;;;4981955;28;20220;-49
2022/12/03 02:44:40;;;;;;;19.00;10.37;;;2.40;99.90;;;;;;4984000;28;20209;-54
2022/12/03 02:47:07;;;;;;;20.17;10.53;;;2.40;99.90;;;;;;4966684;28;20209;-58
2022/12/03 02:49:34;;;;;;;17.00;10.27;;;2.40;99.90;;;;;;4983543;28;20236;-49
2022/12/03 02:52:01;;;;;;;19.23;9.67;;;2.40;99.90;;;;;;4976713;28;20205;-58
2022/12/03 02:54:28;;;;;;;18.93;10.23;;;2.40;99.90;;;;;;4982733;28;20200;-49
2022/12/03 02:56:56;;;;;;;16.33;10.33;;;2.30;99.90;;;;;;4977545;28;20232;-60
2022/12/03 02:59:23;;;;;;;19.07;10.33;;;2.40;99.90;;;;;;4980985;28;20939;-45
2022/12/03 03:01:50;;;;;;;20.87;10.50;;;2.30;99.90;;;;;;4968303;28;20215;-47
2022/12/03 03:04:17;;;;;;;19.20;9.47;;;2.30;99.90;;;;;;4979820;28;20855;-51
2022/12/03 03:06:45;;;;;;;19.00;9.90;;;2.30;99.90;;;;;;4978635;28;20288;-47
2022/12/03 03:09:12;;;;;;;20.20;10.67;;;2.30;99.90;;;;;;4980018;28;20305;-52
2022/12/03 03:11:39;;;;;;;21.00;10.30;;;2.20;99.90;;;;;;4978007;28;20681;-50
2022/12/03 03:14:07;;;;;;;20.97;10.83;;;2.20;99.90;;;;;;4980554;28;20212;-58
2022/12/03 03:16:34;;;;;;;17.37;9.23;;;2.20;99.90;;;;;;4983394;28;20222;-46
2022/12/03 03:19:01;;;;;;;20.03;9.80;;;2.20;99.90;;;;;;4966065;28;20308;-58
2022/12/03 03:21:28;;;;;;;22.87;10.63;;;2.20;99.90;;;;;;4981917;28;20898;-46
2022/12/03 03:23:56;;;;;;;19.00;10.80;;;2.20;99.90;;;;;;4977456;28;20220;-58
2022/12/03 03:26:23;;;;;;;21.27;9.47;;;2.20;99.90;;;;;;4981202;28;20193;-46
2022/12/03 03:28:51;;;;;;;20.27;10.03;;;2.10;99.90;;;;;;4977989;28;20748;-47
2022/12/03 03:31:23;;;;;;;18.27;9.90;;;2.10;99.90;;;;;;4979948;28;20272;-52
2022/12/03 03:33:50;;;;;;;19.97;10.43;;;2.20;99.90;;;;;;4967497;28;20209;-47
2022/12/03 03:36:19;;;;;;;21.80;10.40;;;2.10;99.90;;;;;;4979417;28;20300;-48
2022/12/03 03:38:47;;;;;;;18.53;9.57;;;2.10;99.90;;;;;;4971695;28;20237;-45
2022/12/03 03:41:15;;;;;;;19.50;10.57;;;2.10;99.90;;;;;;4973562;28;20221;-45
2022/12/03 03:43:42;;;;;;;21.00;9.60;;;2.10;99.90;;;;;;4972552;28;20209;-49
2022/12/03 03:46:10;;;;;;;22.63;11.43;;;2.10;99.90;;;;;;4975192;28;20216;-58
2022/12/03 03:48:41;;;;;;;20.17;10.07;;;2.00;99.90;;;;;;4981412;28;20260;-47
2022/12/03 03:51:09;;;;;;;19.37;10.13;;;2.00;99.90;;;;;;4968791;28;20681;-57
2022/12/03 03:53:38;;;;;;;20.97;10.33;;;2.00;99.90;;;;;;4986661;28;20288;-45
2022/12/03 03:56:06;;;;;;;16.20;9.67;;;2.00;99.90;;;;;;4978370;28;20717;-57
2022/12/03 03:58:33;;;;;;;22.23;11.03;;;2.00;99.90;;;;;;4980823;28;20313;-55
2022/12/03 04:01:01;;;;;;;25.93;10.70;;;2.00;99.90;;;;;;4985606;28;20197;-59
2022/12/03 04:03:28;;;;;;;20.80;10.90;;;2.00;99.90;;;;;;4984384;28;20193;-51
2022/12/03 04:05:56;;;;;;;23.53;10.93;;;2.00;99.90;;;;;;4970425;28;20296;-58
2022/12/03 04:08:23;;;;;;;25.23;11.13;;;2.00;99.90;;;;;;4983051;28;20213;-48
2022/12/03 04:13:35;;;;;;;20.13;10.60;;;2.00;99.90;;;;;;4979867;28;20204;-46
2022/12/03 04:16:02;;;;;;;22.83;11.13;;;2.00;99.90;;;;;;4984871;28;20693;-57
2022/12/03 04:18:44;;;;;;;21.73;10.37;;;1.90;99.90;;;;;;4984847;28;20251;-45
2022/12/03 04:23:59;;;;;;;20.20;10.43;;;2.00;99.90;;;;;;4980795;28;20204;-58
2022/12/03 04:29:10;;;;;;;20.67;10.87;;;2.00;99.90;;;;;;4977074;28;20279;-57
2022/12/03 04:37:08;;;;;;;21.17;10.30;;;2.00;99.90;;;;;;4950283;28;20240;-49
2022/12/03 04:39:35;;;;;;;20.43;10.67;;;1.90;99.90;;;;;;4982641;28;20224;-58
2022/12/03 04:42:02;;;;;;;16.90;10.37;;;2.00;99.90;;;;;;4980506;28;20212;-47
2022/12/03 04:44:32;;;;;;;23.90;10.47;;;1.90;99.90;;;;;;4978087;28;20209;-56
2022/12/03 04:46:59;;;;;;;21.33;11.03;;;1.90;99.90;;;;;;4985688;28;20201;-46
2022/12/03 04:49:26;;;;;;;20.33;10.97;;;1.90;99.90;;;;;;4983579;28;20230;-59
2022/12/03 04:51:53;;;;;;;23.20;11.10;;;1.90;99.90;;;;;;4968644;28;20205;-46
2022/12/03 04:54:23;;;;;;;24.87;11.73;;;2.00;99.90;;;;;;4984846;28;20655;-60
2022/12/03 04:56:50;;;;;;;20.73;10.90;;;2.00;99.90;;;;;;4983356;28;20224;-45
2022/12/03 04:59:17;;;;;;;24.80;10.67;;;1.90;99.90;;;;;;4979111;28;20229;-48
2022/12/03 05:01:44;;;;;;;22.30;11.10;;;2.00;99.90;;;;;;4981946;28;20224;-46
2022/12/03 05:04:11;;;;;;;21.93;10.17;;;2.00;99.90;;;;;;4985804;28;20212;-49
2022/12/03 05:06:38;;;;;;;19.40;10.07;;;2.00;99.90;;;;;;4966526;28;20205;-52
2022/12/03 05:09:06;;;;;;;21.07;10.27;;;2.00;99.90;;;;;;4985557;28;20240;-57
2022/12/03 05:11:34;;;;;;;19.93;10.43;;;2.00;99.90;;;;;;4982803;28;20288;-57
2022/12/03 05:14:01;;;;;;;20.33;9.93;;;1.90;99.90;;;;;;4985347;28;20689;-53
2022/12/03 05:16:28;;;;;;;18.03;9.73;;;1.90;99.90;;;;;;4977417;28;20217;-57
2022/12/03 05:18:56;;;;;;;23.80;10.40;;;1.90;99.90;;;;;;4984051;28;20244;-48
2022/12/03 05:21:23;;;;;;;15.03;9.33;;;1.90;99.90;;;;;;4984728;28;20212;-59
2022/12/03 05:23:50;;;;;;;19.90;8.93;;;1.90;99.90;;;;;;4968041;28;20212;-46
2022/12/03 05:26:17;;;;;;;19.37;9.73;;;1.90;99.90;;;;;;4979068;28;20197;-53
2022/12/03 05:28:45;;;;;;;20.67;9.90;;;1.90;99.90;;;;;;4981820;28;20220;-47
2022/12/03 05:31:12;;;;;;;20.13;9.57;;;1.90;99.90;;;;;;4979359;28;20216;-52
2022/12/03 05:33:39;;;;;;;17.43;9.40;;;1.90;99.90;;;;;;4981111;28;20197;-47
2022/12/03 05:36:07;;;;;;;18.23;8.90;;;1.90;99.90;;;;;;4985619;28;20229;-49
2022/12/03 05:38:33;;;;;;;16.77;9.03;;;1.90;99.90;;;;;;4966782;28;20239;-59
2022/12/03 05:41:00;;;;;;;19.17;9.77;;;1.90;99.90;;;;;;4984116;28;20550;-46
2022/12/03 05:43:27;;;;;;;19.80;10.50;;;1.90;99.90;;;;;;4980929;28;20209;-58
2022/12/03 05:45:55;;;;;;;20.73;11.20;;;1.90;99.90;;;;;;4977360;28;20212;-52
2022/12/03 05:48:22;;;;;;;17.47;9.47;;;1.90;99.90;;;;;;4984450;28;20213;-58
2022/12/03 05:50:49;;;;;;;21.60;9.23;;;1.90;99.90;;;;;;4982067;28;20276;-48
2022/12/03 05:53:18;;;;;;;19.90;9.13;;;1.90;99.90;;;;;;4984815;28;20209;-51
2022/12/03 05:55:45;;;;;;;21.53;9.73;;;1.90;99.90;;;;;;4968634;28;20205;-45
2022/12/03 05:58:12;;;;;;;15.87;9.17;;;1.90;99.90;;;;;;4984618;28;20256;-52
2022/12/03 06:00:39;;;;;;;16.97;9.53;;;1.90;99.90;;;;;;4980968;28;20224;-46
2022/12/03 06:03:07;;;;;;;15.53;8.63;;;1.90;99.90;;;;;;4978815;28;20843;-48
2022/12/03 06:05:34;;;;;;;18.80;9.40;;;1.90;99.90;;;;;;4981795;28;20296;-59
2022/12/03 06:08:01;;;;;;;16.47;8.90;;;1.90;99.90;;;;;;4984017;28;20281;-56
2022/12/03 06:10:29;;;;;;;17.60;8.80;;;1.90;99.90;;;;;;4959687;28;20202;-57
2022/12/03 06:12:56;;;;;;;17.20;8.83;;;1.90;99.90;;;;;;4982879;28;20190;-46
2022/12/03 06:15:23;;;;;;;20.33;9.80;;;1.90;99.90;;;;;;4983782;28;20209;-58
2022/12/03 06:17:51;;;;;;;18.00;9.63;;;1.90;99.90;;;;;;4976135;28;20240;-46
2022/12/03 06:20:21;;;;;;;17.03;9.27;;;1.90;99.90;;;;;;4984353;28;20663;-56
2022/12/03 06:22:48;;;;;;;21.33;10.03;;;1.90;99.90;;;;;;4981262;28;20197;-52
2022/12/03 06:25:16;;;;;;;18.87;9.33;;;1.80;99.90;;;;;;4969888;28;20220;-55
2022/12/03 06:27:43;;;;;;;20.73;9.90;;;1.80;99.90;;;;;;4980351;28;20201;-52
2022/12/03 06:30:13;;;;;;;21.43;10.13;;;1.80;99.90;;;;;;4984209;28;20228;-46
2022/12/03 06:32:40;;;;;;;17.90;9.43;;;1.80;99.90;;;;;;4974266;28;20239;-46
2022/12/03 06:35:08;;;;;;;18.60;9.70;;;1.80;99.90;;;;;;4984817;28;20205;-49
2022/12/03 06:37:36;;;;;;;21.83;9.47;;;1.80;99.90;;;;;;4980779;28;20217;-58
2022/12/03 06:40:04;;;;;;;23.47;10.37;;;1.80;99.90;;;;;;4964710;28;20213;-53
2022/12/03 06:42:30;;;;;;;22.47;9.93;;;1.70;99.90;;;;;;4980995;28;20207;-58
2022/12/03 06:44:57;;;;;;;21.57;10.20;;;1.70;99.90;;;;;;4977536;28;20651;-45
2022/12/03 06:47:24;;;;;;;18.43;10.20;;;1.70;99.90;;;;;;4982758;28;20201;-58
2022/12/03 06:49:51;;;;;;;17.77;9.53;;;1.70;99.90;;;;;;4976257;28;20986;-47
2022/12/03 06:52:18;;;;;;;22.57;11.17;;;1.80;99.90;;;;;;4984907;28;20288;-59
2022/12/03 06:54:46;;;;;;;20.97;10.33;;;1.80;99.90;;;;;;4963984;28;20952;-45
2022/12/03 06:57:13;;;;;;;21.77;10.40;;;1.80;99.90;;;;;;4983567;28;20213;-49
2022/12/03 06:59:40;;;;;;;19.67;9.80;;;1.80;99.90;;;;;;4979819;28;20213;-52
2022/12/03 07:02:06;;;;;;;16.33;9.53;;;1.80;99.90;;;;;;4983865;28;20288;-47
2022/12/03 07:04:34;;;;;;;23.77;10.17;;;1.80;99.90;;;;;;4973728;28;20231;-58
2022/12/03 07:07:00;;;;;;;19.00;9.97;;;1.80;99.90;;;;;;4983239;28;20633;-51
2022/12/03 07:09:27;;;;;;;22.73;10.77;;;1.80;99.90;;;;;;4982067;28;20252;-57
2022/12/03 07:11:55;;;;;;;21.20;10.97;;;1.80;99.90;;;;;;4967411;28;20216;-46
2022/12/03 07:14:22;;;;;;;18.90;10.30;;;1.80;99.90;;;;;;4982496;28;20207;-58
2022/12/03 07:16:49;;;;;;;21.07;10.50;;;1.80;99.90;;;;;;4980505;28;20961;-46
2022/12/03 07:19:16;;;;;;;19.70;10.80;;;1.80;99.90;;;;;;4983882;28;20236;-48
2022/12/03 07:21:43;;;;;;;19.30;10.07;;;1.80;99.90;;;;;;4976030;28;21023;-49
2022/12/03 07:24:10;;;;;;;21.00;10.50;;;1.80;99.90;;;;;;4977290;28;20949;-46
2022/12/03 07:26:37;;;;;;;22.53;11.60;;;1.80;99.90;;;;;;4973258;28;20669;-49
2022/12/03 07:29:05;;;;;;;26.17;10.73;;;1.80;99.90;;;;;;4985010;28;20217;-58
2022/12/03 07:31:32;;;;;;;21.77;10.47;;;1.80;99.90;;;;;;4983303;28;20209;-46
2022/12/03 07:34:00;;;;;;;21.20;11.00;;;1.80;99.90;;;;;;4984183;28;20615;-57
2022/12/03 07:36:27;;;;;;;21.17;10.90;;;1.90;99.90;;;;;;4980473;28;20216;-51
2022/12/03 07:39:16;;;;;;;24.00;10.87;;;1.90;99.90;;;;;;4983927;28;20279;-46
2022/12/03 07:41:43;;;;;;;19.13;10.10;;;1.90;99.90;;;;;;4987314;28;20220;-54
2022/12/03 07:44:11;;;;;;;19.13;9.67;;;1.80;99.90;;;;;;4968779;28;20781;-48
2022/12/03 07:46:38;;;;;;;21.77;10.57;;;1.90;99.90;;;;;;4987020;28;20240;-46
2022/12/03 07:49:05;;;;;;;19.47;9.50;;;1.90;99.90;;;;;;4984286;28;20224;-58
2022/12/03 07:51:32;;;;;;;21.87;10.30;;;1.90;99.90;;;;;;4981227;28;20205;-51
2022/12/03 07:53:58;;;;;;;23.00;11.23;;;1.80;99.90;;;;;;4978783;28;20220;-58
2022/12/03 07:56:47;;;;;;;20.50;11.03;;;1.80;99.90;;;;;;4987397;28;20216;-50
2022/12/03 07:59:17;;;;;;;29.70;11.60;;;1.90;99.90;;;;;;4962741;28;20253;-53
2022/12/03 08:01:45;;;;;;;26.93;11.83;;;1.90;99.90;;;;;;4986570;28;20201;-47
2022/12/03 08:04:13;;;;;;;23.20;11.30;;;1.90;99.90;;;;;;4982804;28;20190;-49
2022/12/03 08:06:41;;;;;;;21.13;10.80;;;1.90;99.90;;;;;;4981248;28;20202;-50
2022/12/03 08:09:08;;;;;;;26.13;11.77;;;1.90;99.90;;;;;;4981613;28;20212;-58
2022/12/03 08:11:35;;;;;;;22.37;11.73;;;1.90;99.90;;;;;;4986543;28;20201;-46
2022/12/03 08:14:07;;;;;;;21.53;12.07;;;1.90;99.90;;;;;;4969380;28;20250;-58
2022/12/03 08:16:38;;;;;;;23.97;11.90;;;1.90;99.90;;;;;;4982993;28;20232;-53
2022/12/03 08:19:10;;;;;;;23.43;11.07;;;1.90;99.90;;;;;;4982969;28;20225;-58
2022/12/03 08:21:37;;;;;;;22.37;11.13;;;1.90;99.90;;;;;;4980981;28;20206;-47
2022/12/03 08:24:13;;;;;;;21.93;11.30;;;1.90;99.90;;;;;;4983533;28;20567;-57
2022/12/03 08:26:40;;;;;;;22.70;11.17;;;1.90;99.90;;;;;;4986767;28;20201;-47
2022/12/03 08:29:10;;;;;;;28.30;12.03;;;1.90;99.90;;;;;;4968414;28;20237;-60
2022/12/03 08:31:39;;;;;;;23.13;12.07;;;2.00;99.90;;;;;;4985485;28;20696;-50
2022/12/03 08:34:17;;;;;;;21.83;11.27;;;2.00;99.90;;;;;;4982294;28;20240;-58
2022/12/03 08:36:44;;;;;;;25.17;11.93;;;2.00;99.90;;;;;;4980747;28;20204;-48
2022/12/03 08:39:26;;;;;;;24.50;11.87;;;2.00;99.90;;;;;;4970075;28;20225;-50
2022/12/03 08:44:42;;;;;;;25.87;12.70;;;2.00;99.90;;;;;;4971452;28;20726;-51
2022/12/03 08:47:16;;;;;;;25.80;11.70;;;2.00;99.90;;;;;;4977460;28;20212;-52
2022/12/03 08:49:47;;;;;;;23.77;11.90;;;2.10;99.90;;;;;;4985371;28;20567;-52
2022/12/03 08:52:16;;;;;;;18.27;10.87;;;2.10;99.90;;;;;;4976171;28;20197;-45
2022/12/03 08:54:46;;;;;;;23.23;11.40;;;2.10;99.90;;;;;;4976256;28;20209;-46
2022/12/03 08:57:26;;;;;;;24.83;11.33;;;2.10;99.90;;;;;;4982066;28;20232;-49
2022/12/03 08:59:59;;;;;;;23.53;11.47;;;2.10;99.90;;;;;;4978380;28;20232;-60
2022/12/03 09:02:32;;;;;;;23.27;11.67;;;2.10;99.90;;;;;;4978944;28;20375;-49
2022/12/03 09:05:12;;;;;;;24.43;11.63;;;2.10;99.90;;;;;;4983645;28;20200;-58
2022/12/03 09:07:40;;;;;;;21.90;10.60;;;2.10;99.90;;;;;;4985790;28;20252;-47
2022/12/03 09:10:08;;;;;;;24.80;11.63;;;2.10;99.90;;;;;;4974580;28;20225;-61
2022/12/03 09:12:35;;;;;;;23.30;11.70;;;2.10;99.90;;;;;;4985791;28;20849;-50
2022/12/03 09:15:02;;;;;;;22.53;10.97;;;2.10;99.90;;;;;;4982981;28;20201;-57
2022/12/03 09:17:30;;;;;;;23.17;12.10;;;2.20;99.90;;;;;;4969489;28;20216;-45
2022/12/03 09:19:57;;;;;;;23.40;11.17;;;2.20;99.90;;;;;;4983766;28;20229;-60
2022/12/03 09:22:24;;;;;;;26.03;11.43;;;2.20;99.90;;;;;;4983603;28;20223;-47
2022/12/03 09:24:51;;;;;;;24.07;11.70;;;2.20;99.90;;;;;;4978947;28;20247;-57
2022/12/03 09:27:19;;;;;;;21.43;11.73;;;2.30;99.90;;;;;;4982824;28;20205;-50
2022/12/03 09:29:46;;;;;;;21.47;11.03;;;2.30;99.90;;;;;;4985654;28;20877;-47
2022/12/03 09:32:13;;;;;;;22.80;11.63;;;2.40;99.90;;;;;;4965961;28;20212;-51
2022/12/03 09:34:42;;;;;;;26.07;12.13;;;2.40;99.90;;;;;;4985356;28;20677;-51
2022/12/03 09:37:09;;;;;;;21.87;11.10;;;2.50;99.90;;;;;;4981194;28;20292;-45
2022/12/03 09:39:36;;;;;;;23.10;11.60;;;2.50;99.90;;;;;;4984575;28;20225;-45
2022/12/03 09:42:03;;;;;;;21.73;10.83;;;2.50;99.90;;;;;;4976572;28;20213;-57
2022/12/03 09:44:32;;;;;;;23.87;11.40;;;2.50;99.90;;;;;;4983735;28;20197;-48
2022/12/03 09:47:00;;;;;;;20.63;11.50;;;2.60;99.90;;;;;;4967665;28;20205;-58
2022/12/03 09:49:28;;;;;;;25.50;11.67;;;2.60;99.90;;;;;;4983540;28;20790;-48
2022/12/03 09:51:58;;;;;;;21.27;11.07;;;2.70;99.90;;;;;;4983535;28;20677;-58
2022/12/03 09:54:28;;;;;;;21.07;10.50;;;2.70;99.90;;;;;;4976943;28;20993;-50
2022/12/03 09:56:56;;;;;;;21.20;10.87;;;2.60;99.90;;;;;;4978114;28;20205;-60
2022/12/03 09:59:26;;;;;;;22.40;11.73;;;2.70;99.90;;;;;;4983107;28;21032;-48
2022/12/03 10:01:54;;;;;;;21.97;11.17;;;2.70;99.90;;;;;;4967917;28;20320;-59
2022/12/03 10:04:21;;;;;;;20.07;10.70;;;2.70;99.90;;;;;;4982305;28;20204;-46
2022/12/03 10:06:48;;;;;;;19.90;10.87;;;2.70;99.90;;;;;;4984029;28;20209;-57
2022/12/03 10:09:23;;;;;;;24.90;11.40;;;2.70;99.90;;;;;;4981005;28;20222;-46
2022/12/03 10:11:51;;;;;;;19.50;10.97;;;2.70;99.90;;;;;;4978794;28;20240;-59
2022/12/03 10:14:19;;;;;;;21.73;9.90;;;2.70;99.90;;;;;;4982196;28;20212;-52
2022/12/03 10:16:46;;;;;;;21.67;10.87;;;2.70;99.90;;;;;;4984067;28;20640;-48
2022/12/03 10:19:19;;;;;;;27.10;11.67;;;2.70;99.90;;;;;;4958182;28;20234;-51
2022/12/03 10:21:46;;;;;;;23.43;11.90;;;2.70;99.90;;;;;;4983405;28;20214;-49
2022/12/03 10:24:25;;;;;;;18.77;10.47;;;2.70;99.90;;;;;;4980615;28;20212;-54
2022/12/03 10:26:54;;;;;;;21.60;10.63;;;2.70;99.90;;;;;;4977746;28;20232;-58
2022/12/03 10:29:23;;;;;;;24.50;11.13;;;2.70;99.90;;;;;;4982507;28;20209;-49
2022/12/03 10:31:58;;;;;;;22.63;11.50;;;2.70;99.90;;;;;;4982994;28;20205;-60
2022/12/03 10:34:29;;;;;;;20.67;10.43;;;2.70;99.90;;;;;;4967000;28;20231;-48
2022/12/03 10:37:11;;;;;;;21.50;11.40;;;2.70;99.90;;;;;;4982358;28;20224;-58
2022/12/03 10:40:03;;;;;;;23.63;11.60;;;2.60;99.90;;;;;;4983570;28;20232;-49
2022/12/03 10:42:33;;;;;;;18.10;10.33;;;2.60;99.90;;;;;;4977994;28;20201;-48
2022/12/03 10:45:16;;;;;;;22.00;10.40;;;2.60;99.90;;;;;;4981885;28;20203;-58
2022/12/03 10:48:01;;;;;;;20.63;11.47;;;2.60;99.90;;;;;;4984082;28;20213;-50
2022/12/03 10:50:29;;;;;;;20.10;10.80;;;2.50;99.90;;;;;;4980197;28;20215;-46
2022/12/03 10:52:55;;;;;;;19.67;11.33;;;2.50;99.90;;;;;;4982324;28;20220;-58
2022/12/03 10:55:24;;;;;;;19.53;11.20;;;2.50;99.90;;;;;;4981406;28;20200;-49
2022/12/03 10:57:51;;;;;;;23.23;12.03;;;2.50;99.90;;;;;;4983136;28;20202;-59
2022/12/03 11:00:20;;;;;;;21.93;11.20;;;2.40;99.90;;;;;;4976502;28;20967;-52
2022/12/03 11:02:47;;;;;;;22.40;11.40;;;2.40;99.90;;;;;;4983678;28;20612;-49
2022/12/03 11:05:17;;;;;;;17.97;10.40;;;2.50;99.90;;;;;;4964609;28;20305;-52
2022/12/03 11:07:44;;;;;;;23.13;11.23;;;2.50;99.90;;;;;;4984137;28;20239;-47
2022/12/03 11:10:17;;;;;;;22.60;11.30;;;2.50;99.90;;;;;;4980250;28;20220;-50
2022/12/03 11:13:26;;;;;;;22.17;12.10;;;2.50;99.90;;;;;;4983703;28;20725;-51
2022/12/03 11:15:55;;;;;;;19.17;10.00;;;2.50;99.90;;;;;;4977151;28;20197;-57
2022/12/03 11:18:59;;;;;;;21.87;11.00;;;2.50;99.90;;;;;;4981770;28;20221;-49
2022/12/03 11:21:27;;;;;;;21.97;10.63;;;2.50;99.90;;;;;;4977091;28;20865;-52
2022/12/03 11:24:27;;;;;;;22.07;11.00;;;2.50;99.90;;;;;;4982564;28;20206;-56
2022/12/03 11:27:24;;;;;;;19.83;10.73;;;2.50;99.90;;;;;;4982824;28;20213;-56
2022/12/03 11:29:59;;;;;;;19.03;9.83;;;2.60;99.90;;;;;;4975163;28;20696;-55
2022/12/03 11:33:03;;;;;;;27.33;11.13;;;2.50;99.90;;;;;;4982080;28;20193;-47
2022/12/03 11:36:14;;;;;;;16.20;9.87;;;2.50;99.90;;;;;;4965833;28;20692;-50
2022/12/03 11:38:55;;;;;;;18.70;10.63;;;2.50;99.90;;;;;;4980212;28;20217;-46
2022/12/03 11:41:33;;;;;;;22.40;11.37;;;2.50;99.90;;;;;;4981740;28;20197;-52
2022/12/03 11:44:28;;;;;;;20.13;11.23;;;2.40;99.90;;;;;;4980739;28;20204;-54
2022/12/03 11:46:58;;;;;;;20.60;10.27;;;2.40;99.90;;;;;;4970917;28;20580;-58
2022/12/03 11:49:46;;;;;;;20.53;10.20;;;2.40;99.90;;;;;;4982029;28;20969;-51
2022/12/03 11:52:30;;;;;;;20.60;10.13;;;2.40;99.90;;;;;;4964816;28;20201;-55
2022/12/03 11:55:02;;;;;;;20.97;11.00;;;2.40;99.90;;;;;;4977549;28;20256;-56
2022/12/03 11:57:33;;;;;;;18.60;11.03;;;2.40;99.90;;;;;;4983060;28;20201;-53
2022/12/03 12:00:07;;;;;;;19.60;10.90;;;2.40;99.90;;;;;;4977899;28;20248;-56
2022/12/03 12:02:41;;;;;;;20.27;10.57;;;2.40;99.90;;;;;;4982780;28;20194;-56
2022/12/03 12:05:31;;;;;;;20.20;10.20;;;2.50;99.90;;;;;;4979426;28;20205;-50
2022/12/03 12:08:00;;;;;;;19.70;10.17;;;2.50;99.90;;;;;;4963327;28;20692;-56
2022/12/03 12:10:44;;;;;;;23.80;11.43;;;2.50;99.90;;;;;;4984937;28;20322;-53
2022/12/03 12:13:50;;;;;;;19.00;11.00;;;2.50;99.90;;;;;;4982796;28;20193;-52
2022/12/03 12:16:44;;;;;;;19.60;9.97;;;2.50;99.90;;;;;;4978514;28;20201;-47
2022/12/03 12:19:35;;;;;;;17.60;10.37;;;2.50;99.90;;;;;;4982708;28;20913;-50
2022/12/03 12:22:17;;;;;;;20.97;10.23;;;2.50;99.90;;;;;;4972348;28;20525;-56
2022/12/03 12:24:50;;;;;;;22.97;10.83;;;2.50;99.90;;;;;;4986282;28;20201;-54
2022/12/03 12:27:20;;;;;;;20.87;10.97;;;2.60;99.90;;;;;;4983644;28;20224;-57
2022/12/03 12:29:54;;;;;;;23.47;10.67;;;2.50;99.90;;;;;;4986648;28;20233;-54
2022/12/03 12:32:25;;;;;;;20.37;10.83;;;2.50;99.90;;;;;;4978217;28;20204;-51
2022/12/03 12:34:55;;;;;;;19.00;11.43;;;2.50;99.90;;;;;;4985545;28;20212;-55
2022/12/03 12:37:31;;;;;;;23.80;11.80;;;2.50;99.90;;;;;;4984580;28;20197;-51
2022/12/03 12:40:01;;;;;;;21.40;11.17;;;2.50;99.90;;;;;;4968345;28;20225;-55
2022/12/03 12:42:32;;;;;;;17.97;9.83;;;2.50;99.90;;;;;;4985127;28;20197;-53
2022/12/03 12:45:08;;;;;;;21.47;11.03;;;2.50;99.90;;;;;;4984153;28;20593;-55
2022/12/03 12:47:36;;;;;;;21.37;11.73;;;2.50;99.90;;;;;;4980769;28;20739;-52
2022/12/03 12:50:09;;;;;;;23.43;12.20;;;2.50;99.90;;;;;;4983335;28;20217;-58
2022/12/03 12:52:40;;;;;;;23.03;10.47;;;2.50;99.90;;;;;;4986043;28;20201;-55
2022/12/03 12:55:11;;;;;;;22.33;11.53;;;2.50;99.90;;;;;;4967454;28;20224;-56
2022/12/03 12:57:38;;;;;;;21.17;11.10;;;2.50;99.90;;;;;;4985703;28;20288;-53
2022/12/03 13:00:06;;;;;;;19.03;10.93;;;2.50;99.90;;;;;;4982654;28;20291;-55
2022/12/03 13:02:41;;;;;;;24.13;10.83;;;2.50;99.90;;;;;;4985674;28;20292;-51
2022/12/03 13:05:11;;;;;;;18.67;10.00;;;2.50;99.90;;;;;;4975709;28;20877;-50
2022/12/03 13:07:39;;;;;;;21.90;11.43;;;2.50;99.90;;;;;;4986074;28;20210;-53
2022/12/03 13:10:35;;;;;;;20.53;11.13;;;2.50;99.90;;;;;;4968029;28;20213;-54
2022/12/03 13:13:18;;;;;;;22.87;11.73;;;2.50;99.90;;;;;;4982317;28;20232;-57
2022/12/03 13:15:49;;;;;;;22.93;11.93;;;2.50;99.90;;;;;;4985797;28;20677;-47
2022/12/03 13:18:24;;;;;;;18.20;10.27;;;2.50;99.90;;;;;;4970205;28;23071;-52